Time;durP1;ratioP1;P1;durP2;ratioP2;P2;SDS_P1;SDS_P2;PMS_P1;PMS_P2;Temp;Humidity;BMP_temperature;BMP_pressure;BME280_temperature;BME280_humidity;BME280_pressure;Samples;Min_cycle;Max_cycle;Signal;HPM_P1;HPM_P2
2023/03/30 06:03:54;;;;;;;;;;;;;;;13.84;64.44;96762.69;4192497;28;10350;-80
2023/03/30 06:05:57;;;;;;;;;;;;;;;14.18;64.00;96787.19;4198098;28;5818;-80
2023/03/30 06:08:00;;;;;;;;;;;;;;;14.41;63.30;96792.75;4198000;28;5819;-80
2023/03/30 06:10:04;;;;;;;;;;;;;;;14.60;62.97;96782.16;4194038;28;5840;-81
2023/03/30 06:12:08;;;;;;;;;;;;;;;14.75;62.86;96796.78;4193443;28;5834;-81
2023/03/30 06:14:11;;;;;;;;;;;;;;;14.89;62.50;96786.81;4194584;28;5718;-81
2023/03/30 06:16:14;;;;;;;;;;;;;;;15.00;62.27;96778.09;4195718;28;6414;-81
2023/03/30 06:18:16;;;;;;;;;;;;;;;15.08;62.32;96785.78;4193565;28;5724;-81
2023/03/30 06:20:23;;;;;;;;;;;;;;;15.18;62.25;96792.47;4191316;28;5819;-82
2023/03/30 06:22:26;;;;;;;;;;;;;;;15.26;62.01;96803.59;4188671;28;5719;-81
2023/03/30 06:24:32;;;;;;;;;;;;;;;15.31;61.83;96809.09;4197689;28;6908;-81
2023/03/30 06:26:35;;;;;;;;;;;;;;;15.38;61.89;96825.00;4190002;28;5700;-82
2023/03/30 06:28:38;;;;;;;;;;;;;;;15.42;61.87;96820.88;4194233;28;5886;-82
2023/03/30 06:30:41;;;;;;;;;;;;;;;15.47;61.55;96826.31;4198792;28;5838;-82
2023/03/30 06:32:44;;;;;;;;;;;;;;;15.52;61.52;96836.31;4186107;28;5700;-82
2023/03/30 06:34:47;;;;;;;;;;;;;;;15.57;61.50;96831.13;4183055;28;5721;-82
2023/03/30 06:36:52;;;;;;;;;;;;;;;15.59;61.42;96829.84;4183531;28;5869;-82
2023/03/30 06:38:56;;;;;;;;;;;;;;;15.65;61.25;96849.53;4182942;28;5736;-83
2023/03/30 06:41:05;;;;;;;;;;;;;;;15.67;61.00;96845.59;4183028;28;5760;-82
2023/03/30 06:43:13;;;;;;;;;;;;;;;15.69;61.19;96850.69;4183262;28;5815;-82
2023/03/30 06:45:16;;;;;;;;;;;;;;;15.70;61.04;96863.78;4183531;28;5756;-82
2023/03/30 06:47:18;;;;;;;;;;;;;;;15.72;60.87;96866.22;4183016;28;5847;-82
2023/03/30 06:49:23;;;;;;;;;;;;;;;15.71;60.77;96865.41;4183299;28;5733;-82
2023/03/30 06:51:26;;;;;;;;;;;;;;;15.70;60.62;96870.97;4183407;28;5736;-82
2023/03/30 06:53:30;;;;;;;;;;;;;;;15.69;60.72;96878.16;4183216;28;6410;-82
2023/03/30 06:55:33;;;;;;;;;;;;;;;15.70;60.57;96885.09;4182501;28;5736;-82
2023/03/30 06:57:36;;;;;;;;;;;;;;;15.69;60.35;96893.31;4183256;28;5893;-82
2023/03/30 06:59:39;;;;;;;;;;;;;;;15.67;60.28;96884.75;4183292;28;5843;-82
2023/03/30 07:01:43;;;;;;;;;;;;;;;15.69;60.26;96882.66;4183016;28;5776;-81
2023/03/30 07:03:46;;;;;;;;;;;;;;;15.71;60.04;96897.38;4194393;28;5074;-82
2023/03/30 07:05:51;;;;;;;;;;;;;;;15.75;60.03;96907.63;4188823;28;5638;-82
2023/03/30 07:07:54;;;;;;;;;;;;;;;15.76;60.10;96895.94;4189006;28;5646;-82
2023/03/30 07:09:58;;;;;;;;;;;;;;;15.77;59.92;96894.88;4204779;28;6314;-82
2023/03/30 07:12:01;;;;;;;;;;;;;;;15.78;59.97;96902.66;4205347;28;5069;-82
2023/03/30 07:14:04;;;;;;;;;;;;;;;15.80;59.86;96895.25;4204696;28;5912;-81
2023/03/30 07:16:08;;;;;;;;;;;;;;;15.82;59.93;96903.00;4205054;28;5631;-81
2023/03/30 07:18:11;;;;;;;;;;;;;;;15.82;59.56;96887.03;4204772;28;5619;-81
2023/03/30 07:20:15;;;;;;;;;;;;;;;15.85;59.47;96881.22;4204946;28;5637;-81
2023/03/30 07:22:17;;;;;;;;;;;;;;;15.86;59.65;96878.38;4204686;28;5680;-81
2023/03/30 07:24:20;;;;;;;;;;;;;;;15.88;59.53;96884.28;4204720;28;5660;-82
2023/03/30 07:26:25;;;;;;;;;;;;;;;15.88;59.34;96900.28;4204498;28;5620;-82
2023/03/30 07:28:27;;;;;;;;;;;;;;;15.87;59.33;96887.19;4204503;28;5651;-81
2023/03/30 07:30:30;;;;;;;;;;;;;;;15.87;59.13;96896.00;4204859;28;5624;-81
2023/03/30 07:32:33;;;;;;;;;;;;;;;15.88;58.98;96886.97;4204159;28;6317;-82
2023/03/30 07:34:39;;;;;;;;;;;;;;;15.91;58.84;96896.34;4200986;28;5734;-80
2023/03/30 07:36:42;;;;;;;;;;;;;;;15.92;58.61;96909.44;4197561;28;5831;-82
2023/03/30 07:38:46;;;;;;;;;;;;;;;15.92;58.76;96917.44;4197912;28;5785;-80
2023/03/30 07:40:49;;;;;;;;;;;;;;;15.92;58.50;96925.44;4190634;28;5676;-73
2023/03/30 07:42:53;;;;;;;;;;;;;;;15.92;58.37;96937.97;4188716;28;6103;-72
2023/03/30 07:44:56;;;;;;;;;;;;;;;15.89;58.43;96943.75;4187616;28;5628;-72
2023/03/30 07:46:59;;;;;;;;;;;;;;;15.88;58.46;96944.78;4191056;28;5837;-73
2023/03/30 07:49:03;;;;;;;;;;;;;;;15.89;58.14;96949.91;4192152;28;5658;-73
2023/03/30 07:51:09;;;;;;;;;;;;;;;15.87;58.19;96957.31;4195401;28;5620;-73
2023/03/30 07:53:12;;;;;;;;;;;;;;;15.87;58.23;96954.66;4194061;28;5818;-73
2023/03/30 07:55:15;;;;;;;;;;;;;;;15.86;57.87;96963.69;4179125;28;5727;-73
2023/03/30 07:57:19;;;;;;;;;;;;;;;15.86;57.74;96960.19;4196162;28;5686;-72
2023/03/30 07:59:24;;;;;;;;;;;;;;;15.89;57.75;96963.22;4189652;28;5807;-72
2023/03/30 08:01:27;;;;;;;;;;;;;;;15.89;57.50;96952.56;4189923;28;6470;-71
2023/03/30 08:03:31;;;;;;;;;;;;;;;15.92;57.62;96948.63;4190556;28;5718;-73
2023/03/30 08:05:35;;;;;;;;;;;;;;;15.95;57.35;96972.16;4195738;28;5619;-71
2023/03/30 08:07:37;;;;;;;;;;;;;;;15.95;57.22;96974.84;4195779;28;5746;-72
2023/03/30 08:09:44;;;;;;;;;;;;;;;15.95;57.10;96980.97;4173346;28;5773;-73
2023/03/30 08:11:47;;;;;;;;;;;;;;;15.92;56.95;96977.97;4190793;28;5646;-72
2023/03/30 08:13:50;;;;;;;;;;;;;;;15.89;56.75;96973.06;4187174;28;5759;-73
2023/03/30 08:15:55;;;;;;;;;;;;;;;15.86;56.49;96981.53;4191248;28;5834;-73
2023/03/30 08:18:02;;;;;;;;;;;;;;;15.81;56.41;96982.16;4167971;28;5776;-73
2023/03/30 08:20:10;;;;;;;;;;;;;;;15.79;56.32;96967.44;4191040;28;5650;-72
2023/03/30 08:22:13;;;;;;;;;;;;;;;15.76;56.37;96987.38;4187656;28;5777;-73
2023/03/30 08:24:16;;;;;;;;;;;;;;;15.70;56.07;96983.72;4191390;28;5668;-73
2023/03/30 08:26:20;;;;;;;;;;;;;;;15.67;56.06;96988.69;4188133;28;5656;-73
2023/03/30 08:28:23;;;;;;;;;;;;;;;15.63;56.05;96990.97;4188488;28;5719;-73
2023/03/30 08:30:26;;;;;;;;;;;;;;;15.61;55.75;96987.69;4197789;28;5785;-73
2023/03/30 08:32:30;;;;;;;;;;;;;;;15.58;55.46;96984.63;4186490;28;5620;-73
2023/03/30 08:34:33;;;;;;;;;;;;;;;15.54;55.63;96981.59;4194485;28;5790;-73
2023/03/30 08:36:39;;;;;;;;;;;;;;;15.53;55.70;96987.97;4192389;28;5738;-73
2023/03/30 08:38:45;;;;;;;;;;;;;;;15.51;55.45;96995.34;4197523;28;5711;-73
2023/03/30 08:40:50;;;;;;;;;;;;;;;15.50;55.53;96993.72;4189147;28;5636;-73
2023/03/30 08:43:07;;;;;;;;;;;;;;;15.46;55.21;96987.22;4190839;28;5735;-72
2023/03/30 08:45:12;;;;;;;;;;;;;;;15.43;55.37;96988.47;4200644;28;5124;-72
2023/03/30 08:47:19;;;;;;;;;;;;;;;15.38;55.47;96977.63;4189866;28;5631;-72
2023/03/30 08:49:25;;;;;;;;;;;;;;;15.34;55.33;96984.44;4185094;28;5881;-72
2023/03/30 08:51:31;;;;;;;;;;;;;;;15.33;55.61;97000.66;4190022;28;5674;-72
2023/03/30 08:53:36;;;;;;;;;;;;;;;15.33;55.87;96997.97;4188844;28;5626;-73
2023/03/30 08:55:46;;;;;;;;;;;;;;;15.35;55.67;97003.91;4188962;28;5666;-73
2023/03/30 08:57:55;;;;;;;;;;;;;;;15.35;55.57;96998.56;4186187;28;5737;-72
2023/03/30 09:00:07;;;;;;;;;;;;;;;15.37;55.61;96999.97;4192831;28;5753;-72
2023/03/30 09:02:17;;;;;;;;;;;;;;;15.41;55.80;97011.03;4186356;28;5943;-73
2023/03/30 09:04:33;;;;;;;;;;;;;;;15.42;55.69;97015.31;4193041;28;5189;-73
2023/03/30 09:06:46;;;;;;;;;;;;;;;15.37;55.68;97023.13;4192386;28;7785;-72
2023/03/30 09:08:51;;;;;;;;;;;;;;;15.37;55.53;97023.13;4185049;28;5754;-71
2023/03/30 09:10:58;;;;;;;;;;;;;;;15.42;55.71;97031.31;4185828;28;5826;-73
2023/03/30 09:13:05;;;;;;;;;;;;;;;15.46;55.37;97027.16;4189334;28;5643;-73
2023/03/30 09:15:15;;;;;;;;;;;;;;;15.45;55.33;97030.88;4194104;28;5628;-73
2023/03/30 09:17:21;;;;;;;;;;;;;;;15.45;55.34;97038.88;4189594;28;5631;-73
2023/03/30 09:19:34;;;;;;;;;;;;;;;15.44;55.44;97039.91;4188709;28;5840;-73
2023/03/30 09:21:38;;;;;;;;;;;;;;;15.43;55.31;97043.59;4188574;28;5718;-74
2023/03/30 09:23:41;;;;;;;;;;;;;;;15.46;55.38;97037.81;4198541;28;5793;-74
2023/03/30 09:25:52;;;;;;;;;;;;;;;15.44;55.18;97039.91;4198825;28;5730;-74
2023/03/30 09:28:03;;;;;;;;;;;;;;;15.43;54.99;97039.09;4191952;28;5933;-73
2023/03/30 09:30:17;;;;;;;;;;;;;;;15.47;54.94;97042.13;4194042;28;5944;-73
2023/03/30 09:32:27;;;;;;;;;;;;;;;15.51;55.10;97040.63;4186637;28;5734;-73
2023/03/30 09:34:40;;;;;;;;;;;;;;;15.58;54.77;97049.41;4189955;28;5825;-74
2023/03/30 09:36:53;;;;;;;;;;;;;;;15.57;54.51;97050.44;4187836;28;5714;-73
2023/03/30 09:38:56;;;;;;;;;;;;;;;15.56;54.59;97048.81;4189777;28;5773;-73
2023/03/30 09:41:16;;;;;;;;;;;;;;;15.56;54.63;97043.47;4201755;28;5683;-73
2023/03/30 09:43:29;;;;;;;;;;;;;;;15.59;54.41;97045.69;4194018;28;5737;-74
2023/03/30 09:45:34;;;;;;;;;;;;;;;15.63;54.25;97052.28;4194581;28;5845;-73
2023/03/30 09:47:39;;;;;;;;;;;;;;;15.69;54.02;97054.06;4192020;28;5750;-73
2023/03/30 09:49:43;;;;;;;;;;;;;;;15.70;54.11;97053.00;4194016;28;6308;-74
2023/03/30 09:52:01;;;;;;;;;;;;;;;15.69;53.80;97056.72;4185851;28;5140;-73
2023/03/30 09:54:06;;;;;;;;;;;;;;;15.68;53.75;97052.44;4190025;28;5754;-73
2023/03/30 09:56:10;;;;;;;;;;;;;;;15.66;53.87;97057.16;4190487;28;5811;-74
2023/03/30 09:58:17;;;;;;;;;;;;;;;15.64;53.74;97061.91;4183545;28;5725;-73
2023/03/30 10:00:30;;;;;;;;;;;;;;;15.64;53.76;97066.41;4190018;28;5629;-73
2023/03/30 10:02:32;;;;;;;;;;;;;;;15.64;53.45;97067.22;4193817;28;5824;-73
2023/03/30 10:04:57;;;;;;;;;;;;;;;15.69;53.58;97055.91;4185704;28;6817;-72
2023/03/30 10:07:00;;;;;;;;;;;;;;;15.69;53.33;97056.72;4191896;28;5645;-74
2023/03/30 10:09:23;;;;;;;;;;;;;;;15.67;53.14;97045.47;4189765;28;5627;-73
2023/03/30 10:11:36;;;;;;;;;;;;;;;15.70;53.24;97049.53;4191283;28;5821;-73
2023/03/30 10:13:42;;;;;;;;;;;;;;;15.70;53.21;97050.34;4188921;28;5838;-73
2023/03/30 10:15:48;;;;;;;;;;;;;;;15.73;52.94;97044.56;4188866;28;5608;-73
2023/03/30 10:17:55;;;;;;;;;;;;;;;15.75;53.00;97052.38;4184007;28;5725;-72
2023/03/30 10:20:21;;;;;;;;;;;;;;;15.77;53.09;97060.16;4189905;28;5640;-72
2023/03/30 10:22:24;;;;;;;;;;;;;;;15.77;52.80;97065.47;4191595;28;5755;-72
2023/03/30 10:24:30;;;;;;;;;;;;;;;15.77;52.72;97054.81;4191628;28;5651;-73
2023/03/30 10:26:36;;;;;;;;;;;;;;;15.78;52.65;97075.09;4188628;28;5762;-73
2023/03/30 10:28:40;;;;;;;;;;;;;;;15.77;52.77;97086.81;4186925;28;5761;-73
2023/03/30 10:30:50;;;;;;;;;;;;;;;15.75;52.77;97095.03;4190624;28;5695;-72
2023/03/30 10:32:56;;;;;;;;;;;;;;;15.74;52.64;97088.03;4189740;28;5800;-75
2023/03/30 10:35:03;;;;;;;;;;;;;;;15.68;52.78;97088.91;4185890;28;5123;-75
2023/03/30 10:37:12;;;;;;;;;;;;;;;15.60;52.90;97082.00;4195022;28;5722;-73
2023/03/30 10:39:22;;;;;;;;;;;;;;;15.58;52.92;97085.91;4191799;28;5632;-74
2023/03/30 10:41:24;;;;;;;;;;;;;;;15.58;52.76;97084.03;4194658;28;6566;-73
2023/03/30 10:43:31;;;;;;;;;;;;;;;15.57;52.73;97082.41;4192116;28;5655;-73
2023/03/30 10:45:39;;;;;;;;;;;;;;;15.59;52.42;97075.00;4194043;28;5616;-73
2023/03/30 10:47:58;;;;;;;;;;;;;;;15.62;52.59;97079.94;4192226;28;5731;-72
2023/03/30 10:50:11;;;;;;;;;;;;;;;15.63;52.66;97081.59;4193178;28;5790;-72
2023/03/30 10:52:24;;;;;;;;;;;;;;;15.69;52.40;97095.88;4194023;28;5627;-73
2023/03/30 10:54:31;;;;;;;;;;;;;;;15.72;52.36;97093.59;4201362;28;5836;-73
2023/03/30 10:56:39;;;;;;;;;;;;;;;15.74;52.35;97088.03;4199784;28;5782;-72
2023/03/30 10:59:07;;;;;;;;;;;;;;;15.76;52.33;97093.16;4202396;28;5920;-72
2023/03/30 11:01:15;;;;;;;;;;;;;;;15.73;52.21;97092.56;4196583;28;5790;-73
2023/03/30 11:03:22;;;;;;;;;;;;;;;15.72;52.28;97093.59;4194581;28;5640;-73
2023/03/30 11:05:29;;;;;;;;;;;;;;;15.70;52.13;97085.00;4192097;28;5627;-73
2023/03/30 11:07:41;;;;;;;;;;;;;;;15.72;52.02;97085.59;4197028;28;5631;-72
2023/03/30 11:09:54;;;;;;;;;;;;;;;15.76;52.21;97069.19;4201348;28;6515;-72
2023/03/30 11:12:01;;;;;;;;;;;;;;;15.76;51.99;97075.31;4196863;28;5718;-72
2023/03/30 11:14:09;;;;;;;;;;;;;;;15.76;52.03;97077.19;4194112;28;5756;-72
2023/03/30 11:16:16;;;;;;;;;;;;;;;15.73;51.85;97075.75;4202122;28;5623;-73
2023/03/30 11:18:24;;;;;;;;;;;;;;;15.70;51.88;97071.66;4196665;28;5758;-72
2023/03/30 11:20:31;;;;;;;;;;;;;;;15.71;52.04;97083.97;4201971;28;5632;-73
2023/03/30 11:22:41;;;;;;;;;;;;;;;15.73;52.09;97084.56;4191828;28;5647;-72
2023/03/30 11:24:49;;;;;;;;;;;;;;;15.73;51.87;97089.88;4192236;28;5666;-72
2023/03/30 11:26:59;;;;;;;;;;;;;;;15.72;51.95;97085.59;4187956;28;5650;-72
2023/03/30 11:29:24;;;;;;;;;;;;;;;15.75;51.95;97086.22;4196704;28;5777;-72
2023/03/30 11:31:40;;;;;;;;;;;;;;;15.76;51.96;97085.19;4192796;28;6307;-72
2023/03/30 11:33:50;;;;;;;;;;;;;;;15.77;52.00;97081.47;4200421;28;5829;-73
2023/03/30 11:36:00;;;;;;;;;;;;;;;15.77;51.97;97082.28;4195199;28;5805;-73
2023/03/30 11:38:11;;;;;;;;;;;;;;;15.79;51.93;97084.72;4197009;28;5651;-72
2023/03/30 11:40:17;;;;;;;;;;;;;;;15.79;51.83;97087.41;4197872;28;6301;-72
2023/03/30 11:42:25;;;;;;;;;;;;;;;15.80;51.75;97091.69;4188598;28;6028;-72
2023/03/30 11:44:28;;;;;;;;;;;;;;;15.84;51.84;97092.88;4201353;28;5620;-72
2023/03/30 11:46:40;;;;;;;;;;;;;;;15.84;51.72;97100.88;4195466;28;5717;-73
2023/03/30 11:49:11;;;;;;;;;;;;;;;15.82;51.78;97094.94;4190998;28;5722;-73
2023/03/30 11:51:36;;;;;;;;;;;;;;;15.86;51.84;97096.16;4195190;28;5639;-73
2023/03/30 11:53:52;;;;;;;;;;;;;;;15.93;51.94;97091.56;4196664;28;5811;-73
2023/03/30 11:56:05;;;;;;;;;;;;;;;15.99;51.91;97096.03;4192026;28;5627;-73
2023/03/30 11:58:20;;;;;;;;;;;;;;;16.00;52.00;97092.31;4192010;28;5854;-72
2023/03/30 12:00:35;;;;;;;;;;;;;;;16.00;51.82;97089.66;4188404;28;5741;-71
2023/03/30 12:02:41;;;;;;;;;;;;;;;16.04;51.61;97098.03;4186993;28;6698;-70
2023/03/30 12:04:52;;;;;;;;;;;;;;;16.04;51.72;97088.19;4196392;28;5650;-72
2023/03/30 12:06:58;;;;;;;;;;;;;;;16.05;52.12;97073.81;4175190;28;5935;-71
2023/03/30 12:09:24;;;;;;;;;;;;;;;16.07;51.82;97082.38;4199780;28;5723;-73
2023/03/30 12:11:33;;;;;;;;;;;;;;;16.07;51.85;97076.25;4199878;28;5825;-72
2023/03/30 12:13:36;;;;;;;;;;;;;;;16.02;51.59;97072.41;4195460;28;5786;-72
2023/03/30 12:15:58;;;;;;;;;;;;;;;16.05;51.57;97062.31;4193468;28;5651;-72
2023/03/30 12:18:12;;;;;;;;;;;;;;;16.05;51.66;97052.47;4191394;28;5627;-71
2023/03/30 12:20:31;;;;;;;;;;;;;;;16.09;51.72;97067.00;4187822;28;5624;-71
2023/03/30 12:22:42;;;;;;;;;;;;;;;16.12;51.64;97053.22;4194351;28;7403;-72
2023/03/30 12:24:51;;;;;;;;;;;;;;;16.13;51.48;97052.19;4199742;28;5738;-72
2023/03/30 12:26:54;;;;;;;;;;;;;;;16.13;51.42;97049.53;4189766;28;5654;-71
2023/03/30 12:29:11;;;;;;;;;;;;;;;16.16;51.31;97049.06;4190632;28;5884;-71
2023/03/30 12:31:21;;;;;;;;;;;;;;;16.18;51.24;97043.50;4189188;28;5693;-72
2023/03/30 12:33:33;;;;;;;;;;;;;;;16.18;51.25;97057.66;4192404;28;5652;-71
2023/03/30 12:35:56;;;;;;;;;;;;;;;16.17;51.02;97071.22;4192684;28;5817;-72
2023/03/30 12:38:00;;;;;;;;;;;;;;;16.16;51.03;97065.06;4187452;28;5730;-72
2023/03/30 12:40:08;;;;;;;;;;;;;;;16.15;51.21;97078.63;4186958;28;5676;-73
2023/03/30 12:42:25;;;;;;;;;;;;;;;16.12;51.24;97063.91;4192771;28;6432;-72
2023/03/30 12:44:39;;;;;;;;;;;;;;;16.12;51.10;97065.75;4190174;28;5801;-71
2023/03/30 12:46:57;;;;;;;;;;;;;;;16.13;51.11;97070.84;4187432;28;6339;-72
2023/03/30 12:49:10;;;;;;;;;;;;;;;16.16;51.21;97077.59;4187909;28;5638;-72
2023/03/30 12:51:22;;;;;;;;;;;;;;;16.20;51.18;97068.13;4191271;28;6457;-72
2023/03/30 12:53:53;;;;;;;;;;;;;;;16.23;51.02;97060.50;4190323;28;5782;-72
2023/03/30 12:56:05;;;;;;;;;;;;;;;16.26;50.99;97068.03;4194074;28;5699;-72
2023/03/30 12:58:39;;;;;;;;;;;;;;;16.30;51.03;97073.75;4190206;28;5802;-71
2023/03/30 13:01:10;;;;;;;;;;;;;;;16.29;51.05;97059.59;4193555;28;5102;-72
2023/03/30 13:03:35;;;;;;;;;;;;;;;16.29;50.89;97051.59;4170177;28;5971;-71
2023/03/30 13:05:41;;;;;;;;;;;;;;;16.30;51.13;97055.88;4193017;28;5647;-71
2023/03/30 13:07:45;;;;;;;;;;;;;;;16.29;51.12;97048.91;4197156;28;5632;-71
2023/03/30 13:09:53;;;;;;;;;;;;;;;16.32;51.07;97053.00;4188627;28;5634;-71
2023/03/30 13:12:30;;;;;;;;;;;;;;;16.34;51.04;97048.25;4187849;28;6459;-72
2023/03/30 13:14:44;;;;;;;;;;;;;;;16.41;51.04;97034.81;4189418;28;5770;-72
2023/03/30 13:17:09;;;;;;;;;;;;;;;16.45;51.17;97030.69;4188674;28;5773;-72
2023/03/30 13:19:22;;;;;;;;;;;;;;;16.43;51.08;97028.25;4186810;28;5287;-73
2023/03/30 13:21:26;;;;;;;;;;;;;;;16.41;51.05;97030.31;4188201;28;5703;-72
2023/03/30 13:23:32;;;;;;;;;;;;;;;16.41;51.12;97030.31;4194942;28;5639;-72
2023/03/30 13:25:43;;;;;;;;;;;;;;;16.43;51.10;97022.09;4199940;28;5624;-72
2023/03/30 13:27:51;;;;;;;;;;;;;;;16.44;51.04;97019.19;4190295;28;5739;-71
2023/03/30 13:29:56;;;;;;;;;;;;;;;16.51;50.93;97029.78;4191748;28;5663;-72
2023/03/30 13:32:06;;;;;;;;;;;;;;;16.58;50.88;97025.19;4190836;28;5831;-72
2023/03/30 13:34:18;;;;;;;;;;;;;;;16.62;50.82;97022.88;4187599;28;6006;-72
2023/03/30 13:36:24;;;;;;;;;;;;;;;16.66;50.99;97022.22;4193427;28;5631;-71
2023/03/30 13:38:54;;;;;;;;;;;;;;;16.70;50.71;97018.06;4206819;28;5652;-72
2023/03/30 13:41:13;;;;;;;;;;;;;;;16.78;50.68;97019.63;4184788;28;5631;-71
2023/03/30 13:43:30;;;;;;;;;;;;;;;16.85;50.53;97020.31;4193451;28;5616;-71
2023/03/30 13:45:39;;;;;;;;;;;;;;;16.91;50.71;97014.09;4199615;28;5636;-71
2023/03/30 13:47:55;;;;;;;;;;;;;;;16.95;50.57;97017.09;4198231;28;5716;-71
2023/03/30 13:50:02;;;;;;;;;;;;;;;17.01;50.29;97002.84;4187388;28;5635;-71
2023/03/30 13:52:10;;;;;;;;;;;;;;;17.04;50.35;97002.38;4186146;28;6516;-71
2023/03/30 13:54:17;;;;;;;;;;;;;;;17.07;50.21;97013.41;4183869;28;5638;-71
2023/03/30 13:56:21;;;;;;;;;;;;;;;17.08;50.39;97004.34;4189015;28;6330;-72
2023/03/30 13:58:31;;;;;;;;;;;;;;;17.11;50.36;97011.13;4199390;28;5627;-71
2023/03/30 14:00:43;;;;;;;;;;;;;;;17.14;50.37;97016.81;4193639;28;5636;-71
2023/03/30 14:02:50;;;;;;;;;;;;;;;17.17;50.19;97010.19;4181257;28;5704;-71
2023/03/30 14:05:15;;;;;;;;;;;;;;;17.18;50.14;97003.81;4188814;28;5743;-71
2023/03/30 14:07:21;;;;;;;;;;;;;;;17.18;50.18;97004.63;4190035;28;5639;-71
2023/03/30 14:09:26;;;;;;;;;;;;;;;17.19;50.04;97000.09;4200694;28;5737;-71
2023/03/30 14:11:34;;;;;;;;;;;;;;;17.18;50.17;97003.81;4198126;28;5623;-71
2023/03/30 14:13:39;;;;;;;;;;;;;;;17.20;49.93;97007.06;4189017;28;6554;-71
2023/03/30 14:15:44;;;;;;;;;;;;;;;17.21;50.03;97003.34;4196946;28;5620;-71
2023/03/30 14:17:50;;;;;;;;;;;;;;;17.25;49.83;96999.19;4201252;28;5662;-71
2023/03/30 14:20:08;;;;;;;;;;;;;;;17.24;49.93;97007.44;4208960;28;5795;-72
2023/03/30 14:22:17;;;;;;;;;;;;;;;17.23;49.87;97009.28;4202466;28;5647;-72
2023/03/30 14:24:31;;;;;;;;;;;;;;;17.21;49.94;97003.34;4200790;28;5730;-72
2023/03/30 14:26:42;;;;;;;;;;;;;;;17.21;49.84;97007.88;4197761;28;5722;-72
2023/03/30 14:28:56;;;;;;;;;;;;;;;17.20;49.78;97007.06;4194768;28;5831;-72
2023/03/30 14:31:03;;;;;;;;;;;;;;;17.19;49.92;96994.75;4194101;28;5711;-71
2023/03/30 14:33:08;;;;;;;;;;;;;;;17.16;49.86;96989.88;4190154;28;5636;-71
2023/03/30 14:35:16;;;;;;;;;;;;;;;17.14;49.90;96992.78;4193440;28;5627;-72
2023/03/30 14:37:20;;;;;;;;;;;;;;;17.12;49.96;96989.53;4197936;28;5707;-72
2023/03/30 14:39:23;;;;;;;;;;;;;;;17.11;50.02;96993.22;4201015;28;5640;-71
2023/03/30 14:41:27;;;;;;;;;;;;;;;17.10;50.06;96991.59;4202314;28;5620;-71
2023/03/30 14:43:31;;;;;;;;;;;;;;;17.09;49.96;96984.63;4201498;28;5628;-72
2023/03/30 14:45:36;;;;;;;;;;;;;;;17.11;50.13;96993.22;4195901;28;5730;-72
2023/03/30 14:47:40;;;;;;;;;;;;;;;17.14;50.07;96981.28;4186108;28;6469;-71
2023/03/30 14:49:46;;;;;;;;;;;;;;;17.14;50.04;96986.63;4181167;28;6037;-71
2023/03/30 14:51:51;;;;;;;;;;;;;;;17.15;50.13;96972.22;4191421;28;5707;-71
2023/03/30 14:53:57;;;;;;;;;;;;;;;17.16;50.08;96980.00;4190000;28;5639;-71
2023/03/30 14:56:01;;;;;;;;;;;;;;;17.15;50.12;96972.22;4191539;28;5646;-71
2023/03/30 14:58:05;;;;;;;;;;;;;;;17.18;50.26;96971.75;4196697;28;6628;-71
2023/03/30 15:00:21;;;;;;;;;;;;;;;17.17;50.25;96970.94;4183855;28;5118;-72
2023/03/30 15:02:28;;;;;;;;;;;;;;;17.17;50.40;96970.13;4195072;28;5627;-72
2023/03/30 15:04:35;;;;;;;;;;;;;;;17.16;49.92;96969.31;4188491;28;6515;-71
2023/03/30 15:06:38;;;;;;;;;;;;;;;17.16;50.20;96963.16;4189655;28;5623;-70
2023/03/30 15:08:45;;;;;;;;;;;;;;;17.16;50.32;96961.28;4193767;28;5658;-65
2023/03/30 15:10:53;;;;;;;;;;;;;;;17.17;50.11;96962.09;4185669;28;5726;-66
2023/03/30 15:12:57;;;;;;;;;;;;;;;17.18;50.30;96963.72;4185258;28;5721;-71
2023/03/30 15:15:05;;;;;;;;;;;;;;;17.22;50.17;96964.91;4192657;28;5636;-77
2023/03/30 15:17:10;;;;;;;;;;;;;;;17.24;50.16;96964.69;4189194;28;5727;-67
2023/03/30 15:19:25;;;;;;;;;;;;;;;17.24;50.23;96949.47;4190361;28;5639;-72
2023/03/30 15:21:32;;;;;;;;;;;;;;;17.26;50.18;96952.72;4186433;28;5718;-64
2023/03/30 15:23:39;;;;;;;;;;;;;;;17.28;50.04;96949.81;4187787;28;5744;-66
2023/03/30 15:25:44;;;;;;;;;;;;;;;17.29;50.17;96944.22;4191782;28;5089;-66
2023/03/30 15:27:52;;;;;;;;;;;;;;;17.29;50.22;96946.91;4189806;28;5615;-71
2023/03/30 15:29:55;;;;;;;;;;;;;;;17.30;50.05;96943.19;4188065;28;5758;-65
2023/03/30 15:32:11;;;;;;;;;;;;;;;17.31;50.02;96930.63;4177529;28;5723;-65
2023/03/30 15:34:17;;;;;;;;;;;;;;;17.30;49.85;96927.16;4188018;28;5711;-66
2023/03/30 15:36:22;;;;;;;;;;;;;;;17.33;49.93;96931.22;4194358;28;5714;-66
2023/03/30 15:38:30;;;;;;;;;;;;;;;17.34;49.72;96933.66;4192364;28;6127;-67
2023/03/30 15:40:36;;;;;;;;;;;;;;;17.34;49.88;96922.16;4187377;28;5703;-66
2023/03/30 15:42:39;;;;;;;;;;;;;;;17.34;49.84;96909.63;4194542;28;5774;-67
2023/03/30 15:44:44;;;;;;;;;;;;;;;17.34;49.81;96916.81;4193263;28;5726;-67
2023/03/30 15:46:49;;;;;;;;;;;;;;;17.33;49.68;96910.66;4189450;28;5639;-68
2023/03/30 15:48:53;;;;;;;;;;;;;;;17.33;49.84;96909.84;4187552;28;5632;-67
2023/03/30 15:51:04;;;;;;;;;;;;;;;17.35;49.77;96907.75;4187622;28;5829;-67
2023/03/30 15:53:13;;;;;;;;;;;;;;;17.34;49.45;96904.28;4186767;28;5800;-67
2023/03/30 15:55:22;;;;;;;;;;;;;;;17.35;49.53;96897.06;4184523;28;7291;-67
2023/03/30 15:57:29;;;;;;;;;;;;;;;17.36;49.66;96904.03;4188121;28;5769;-68
2023/03/30 15:59:36;;;;;;;;;;;;;;;17.35;49.70;96889.06;4190547;28;5983;-66
2023/03/30 16:01:45;;;;;;;;;;;;;;;17.34;49.54;96890.91;4186923;28;5730;-67
2023/03/30 16:03:54;;;;;;;;;;;;;;;17.36;49.59;96882.66;4189375;28;5802;-68
2023/03/30 16:05:58;;;;;;;;;;;;;;;17.37;49.37;96884.28;4188349;28;5726;-69
2023/03/30 16:08:02;;;;;;;;;;;;;;;17.36;49.24;96878.13;4190127;28;5733;-68
2023/03/30 16:10:06;;;;;;;;;;;;;;;17.37;49.19;96877.06;4184772;28;6411;-68
2023/03/30 16:12:11;;;;;;;;;;;;;;;17.40;49.18;96868.59;4189560;28;5861;-67
2023/03/30 16:14:18;;;;;;;;;;;;;;;17.40;49.00;96862.44;4187850;28;5738;-69
2023/03/30 16:16:21;;;;;;;;;;;;;;;17.40;49.07;96867.78;4190143;28;5796;-69
2023/03/30 16:18:24;;;;;;;;;;;;;;;17.38;48.95;96854.66;4191004;28;5823;-70
2023/03/30 16:20:30;;;;;;;;;;;;;;;17.39;49.04;96864.28;4188608;28;5715;-68
2023/03/30 16:22:34;;;;;;;;;;;;;;;17.42;48.97;96855.78;4194125;28;7274;-68
2023/03/30 16:24:37;;;;;;;;;;;;;;;17.41;48.89;96856.84;4186189;28;5820;-66
2023/03/30 16:26:40;;;;;;;;;;;;;;;17.42;49.06;96861.13;4191645;28;5718;-67
2023/03/30 16:28:43;;;;;;;;;;;;;;;17.41;48.82;96845.34;4190445;28;5758;-67
2023/03/30 16:30:49;;;;;;;;;;;;;;;17.40;48.77;96849.88;4184017;28;5840;-66
2023/03/30 16:32:53;;;;;;;;;;;;;;;17.40;48.82;96841.88;4185197;28;5729;-67
2023/03/30 16:34:56;;;;;;;;;;;;;;;17.41;48.63;96848.03;4191688;28;7217;-69
2023/03/30 16:37:00;;;;;;;;;;;;;;;17.39;48.75;96850.13;4187987;28;5097;-66
2023/03/30 16:39:10;;;;;;;;;;;;;;;17.38;48.60;96840.47;4192976;28;6429;-66
2023/03/30 16:41:18;;;;;;;;;;;;;;;17.36;48.55;96853.28;4194984;28;5702;-66
2023/03/30 16:43:20;;;;;;;;;;;;;;;17.34;48.70;96858.84;4185421;28;5916;-66
2023/03/30 16:45:23;;;;;;;;;;;;;;;17.31;48.77;96855.81;4188185;28;6297;-66
2023/03/30 16:47:26;;;;;;;;;;;;;;;17.29;48.74;96861.41;4183267;28;5754;-67
2023/03/30 16:49:29;;;;;;;;;;;;;;;17.27;48.78;96855.47;4187339;28;5757;-68
2023/03/30 16:51:32;;;;;;;;;;;;;;;17.26;48.65;96848.50;4183416;28;5940;-68
2023/03/30 16:53:35;;;;;;;;;;;;;;;17.23;48.84;96849.00;4184916;28;5802;-68
2023/03/30 16:55:40;;;;;;;;;;;;;;;17.22;48.67;96843.88;4182062;28;5898;-72
2023/03/30 16:57:43;;;;;;;;;;;;;;;17.21;48.66;96843.03;4187729;28;5777;-71
2023/03/30 16:59:46;;;;;;;;;;;;;;;17.21;48.68;96837.69;4189938;28;5634;-65
2023/03/30 17:01:50;;;;;;;;;;;;;;;17.20;48.62;96829.91;4191748;28;5121;-68
2023/03/30 17:03:53;;;;;;;;;;;;;;;17.18;48.54;96827.50;4188498;28;5796;-65
2023/03/30 17:05:56;;;;;;;;;;;;;;;17.13;48.78;96825.53;4193595;28;5651;-70
2023/03/30 17:08:04;;;;;;;;;;;;;;;17.12;48.75;96823.09;4181262;28;5777;-65
2023/03/30 17:10:16;;;;;;;;;;;;;;;17.09;48.91;96827.03;4185759;28;5755;-68
2023/03/30 17:12:20;;;;;;;;;;;;;;;17.08;48.95;96821.91;4187939;28;5717;-70
2023/03/30 17:14:23;;;;;;;;;;;;;;;17.07;49.02;96823.78;4189140;28;5631;-71
2023/03/30 17:16:28;;;;;;;;;;;;;;;17.08;49.00;96835.28;4188344;28;5726;-71
2023/03/30 17:18:31;;;;;;;;;;;;;;;17.06;49.12;96835.50;4196200;28;5710;-71